sensor_id;sensor_type;location;lat;lon;timestamp;temperature;humidity
14993;DHT22;7592;51.088;13.732;2022-10-31T00:02:50;11.30;99.90
14993;DHT22;7592;51.088;13.732;2022-10-31T00:07:43;11.40;99.90
14993;DHT22;7592;51.088;13.732;2022-10-31T00:12:35;11.40;99.90
14993;DHT22;7592;51.088;13.732;2022-10-31T00:17:30;11.40;99.90
14993;DHT22;7592;51.088;13.732;2022-10-31T00:22:26;11.40;99.90
14993;DHT22;7592;51.088;13.732;2022-10-31T00:27:18;11.30;99.90
14993;DHT22;7592;51.088;13.732;2022-10-31T00:32:12;11.10;99.90
14993;DHT22;7592;51.088;13.732;2022-10-31T00:37:05;10.90;99.90
14993;DHT22;7592;51.088;13.732;2022-10-31T00:41:59;10.80;99.90
14993;DHT22;7592;51.088;13.732;2022-10-31T00:46:55;10.70;99.90
14993;DHT22;7592;51.088;13.732;2022-10-31T00:51:47;10.70;99.90
14993;DHT22;7592;51.088;13.732;2022-10-31T00:56:41;10.60;99.90
14993;DHT22;7592;51.088;13.732;2022-10-31T01:01:33;10.50;99.90
14993;DHT22;7592;51.088;13.732;2022-10-31T01:06:26;10.40;99.90
14993;DHT22;7592;51.088;13.732;2022-10-31T01:11:22;10.30;99.90
14993;DHT22;7592;51.088;13.732;2022-10-31T01:16:20;10.30;99.90
14993;DHT22;7592;51.088;13.732;2022-10-31T01:21:17;10.20;99.90
14993;DHT22;7592;51.088;13.732;2022-10-31T01:26:16;10.20;99.90
14993;DHT22;7592;51.088;13.732;2022-10-31T01:31:09;10.20;99.90
14993;DHT22;7592;51.088;13.732;2022-10-31T01:36:15;10.10;99.90
14993;DHT22;7592;51.088;13.732;2022-10-31T01:41:10;10.10;99.90
14993;DHT22;7592;51.088;13.732;2022-10-31T01:46:04;10.10;99.90
14993;DHT22;7592;51.088;13.732;2022-10-31T01:50:56;10.00;99.90
14993;DHT22;7592;51.088;13.732;2022-10-31T01:55:48;10.10;99.90
14993;DHT22;7592;51.088;13.732;2022-10-31T02:00:44;10.00;99.90
14993;DHT22;7592;51.088;13.732;2022-10-31T02:05:38;9.90;99.90
14993;DHT22;7592;51.088;13.732;2022-10-31T02:10:33;9.90;99.90
14993;DHT22;7592;51.088;13.732;2022-10-31T02:15:26;9.90;99.90
14993;DHT22;7592;51.088;13.732;2022-10-31T02:20:21;9.80;99.90
14993;DHT22;7592;51.088;13.732;2022-10-31T02:36:11;9.70;99.90
14993;DHT22;7592;51.088;13.732;2022-10-31T02:46:55;9.60;99.90
14993;DHT22;7592;51.088;13.732;2022-10-31T02:51:50;9.60;99.90
14993;DHT22;7592;51.088;13.732;2022-10-31T02:56:42;9.50;99.90
14993;DHT22;7592;51.088;13.732;2022-10-31T03:12:26;9.40;99.90
14993;DHT22;7592;51.088;13.732;2022-10-31T03:17:58;9.50;99.90
14993;DHT22;7592;51.088;13.732;2022-10-31T03:22:54;9.30;99.90
14993;DHT22;7592;51.088;13.732;2022-10-31T03:27:49;9.20;99.90
14993;DHT22;7592;51.088;13.732;2022-10-31T03:32:52;9.20;99.90
14993;DHT22;7592;51.088;13.732;2022-10-31T03:37:48;9.10;99.90
14993;DHT22;7592;51.088;13.732;2022-10-31T03:42:43;9.10;99.90
14993;DHT22;7592;51.088;13.732;2022-10-31T03:47:39;9.10;99.90
14993;DHT22;7592;51.088;13.732;2022-10-31T04:03:17;9.00;99.90
14993;DHT22;7592;51.088;13.732;2022-10-31T04:08:18;9.00;99.90
14993;DHT22;7592;51.088;13.732;2022-10-31T04:13:17;8.90;99.90
14993;DHT22;7592;51.088;13.732;2022-10-31T04:18:21;8.90;99.90
14993;DHT22;7592;51.088;13.732;2022-10-31T04:23:22;8.90;99.90
14993;DHT22;7592;51.088;13.732;2022-10-31T04:28:15;8.90;99.90
14993;DHT22;7592;51.088;13.732;2022-10-31T04:33:07;8.90;99.90
14993;DHT22;7592;51.088;13.732;2022-10-31T04:38:00;8.80;99.90
14993;DHT22;7592;51.088;13.732;2022-10-31T04:42:54;8.80;99.90
14993;DHT22;7592;51.088;13.732;2022-10-31T04:47:46;8.70;99.90
14993;DHT22;7592;51.088;13.732;2022-10-31T04:52:40;8.70;99.90
14993;DHT22;7592;51.088;13.732;2022-10-31T04:57:45;8.70;99.90
14993;DHT22;7592;51.088;13.732;2022-10-31T05:03:03;8.60;99.90
14993;DHT22;7592;51.088;13.732;2022-10-31T05:07:57;8.60;99.90
14993;DHT22;7592;51.088;13.732;2022-10-31T05:12:55;8.60;99.90
14993;DHT22;7592;51.088;13.732;2022-10-31T05:18:23;8.50;99.90
14993;DHT22;7592;51.088;13.732;2022-10-31T05:23:25;8.50;99.90
14993;DHT22;7592;51.088;13.732;2022-10-31T05:28:18;8.40;99.90
14993;DHT22;7592;51.088;13.732;2022-10-31T05:33:10;8.40;99.90
14993;DHT22;7592;51.088;13.732;2022-10-31T05:38:18;8.40;99.90
14993;DHT22;7592;51.088;13.732;2022-10-31T05:43:11;8.40;99.90
14993;DHT22;7592;51.088;13.732;2022-10-31T05:48:04;8.40;99.90
14993;DHT22;7592;51.088;13.732;2022-10-31T05:53:17;8.40;99.90
14993;DHT22;7592;51.088;13.732;2022-10-31T05:58:10;8.50;99.90
14993;DHT22;7592;51.088;13.732;2022-10-31T06:03:08;8.40;99.90
14993;DHT22;7592;51.088;13.732;2022-10-31T06:08:27;8.40;99.90
14993;DHT22;7592;51.088;13.732;2022-10-31T06:13:26;8.50;99.90
14993;DHT22;7592;51.088;13.732;2022-10-31T06:18:28;8.50;99.90
14993;DHT22;7592;51.088;13.732;2022-10-31T06:23:21;8.60;99.90
14993;DHT22;7592;51.088;13.732;2022-10-31T06:28:19;8.80;99.90
14993;DHT22;7592;51.088;13.732;2022-10-31T06:33:18;8.90;99.90
14993;DHT22;7592;51.088;13.732;2022-10-31T06:38:23;9.10;99.90
14993;DHT22;7592;51.088;13.732;2022-10-31T06:43:18;9.40;99.90
14993;DHT22;7592;51.088;13.732;2022-10-31T06:48:20;9.60;99.90
14993;DHT22;7592;51.088;13.732;2022-10-31T06:53:33;9.90;99.90
14993;DHT22;7592;51.088;13.732;2022-10-31T06:58:34;10.20;99.90
14993;DHT22;7592;51.088;13.732;2022-10-31T07:03:29;10.40;99.90
14993;DHT22;7592;51.088;13.732;2022-10-31T07:08:25;10.60;99.90
14993;DHT22;7592;51.088;13.732;2022-10-31T07:13:23;10.90;99.90
14993;DHT22;7592;51.088;13.732;2022-10-31T07:18:30;11.20;99.90
14993;DHT22;7592;51.088;13.732;2022-10-31T07:23:23;11.30;99.90
14993;DHT22;7592;51.088;13.732;2022-10-31T07:28:37;11.60;99.90
14993;DHT22;7592;51.088;13.732;2022-10-31T07:33:31;14.00;99.90
14993;DHT22;7592;51.088;13.732;2022-10-31T07:38:45;15.70;99.90
14993;DHT22;7592;51.088;13.732;2022-10-31T07:43:38;18.00;99.90
14993;DHT22;7592;51.088;13.732;2022-10-31T07:48:45;18.90;99.90
14993;DHT22;7592;51.088;13.732;2022-10-31T07:53:59;17.90;99.90
14993;DHT22;7592;51.088;13.732;2022-10-31T07:59:00;16.50;99.90
14993;DHT22;7592;51.088;13.732;2022-10-31T08:03:53;15.60;99.90
14993;DHT22;7592;51.088;13.732;2022-10-31T08:09:24;15.40;99.90
14993;DHT22;7592;51.088;13.732;2022-10-31T08:14:23;15.00;99.90
14993;DHT22;7592;51.088;13.732;2022-10-31T08:19:16;14.60;99.90
14993;DHT22;7592;51.088;13.732;2022-10-31T08:24:11;14.50;99.90
14993;DHT22;7592;51.088;13.732;2022-10-31T08:29:05;14.80;99.90
14993;DHT22;7592;51.088;13.732;2022-10-31T08:34:01;15.60;99.90
14993;DHT22;7592;51.088;13.732;2022-10-31T08:39:18;17.50;99.90
14993;DHT22;7592;51.088;13.732;2022-10-31T08:44:14;20.30;99.90
14993;DHT22;7592;51.088;13.732;2022-10-31T08:49:15;21.40;99.90
14993;DHT22;7592;51.088;13.732;2022-10-31T08:54:13;21.70;99.90
14993;DHT22;7592;51.088;13.732;2022-10-31T08:59:20;24.20;99.90
14993;DHT22;7592;51.088;13.732;2022-10-31T09:04:51;24.50;99.90
14993;DHT22;7592;51.088;13.732;2022-10-31T09:09:46;25.80;99.90
14993;DHT22;7592;51.088;13.732;2022-10-31T09:14:47;26.90;95.60
14993;DHT22;7592;51.088;13.732;2022-10-31T09:20:09;28.20;92.00
14993;DHT22;7592;51.088;13.732;2022-10-31T09:25:07;28.80;87.40
14993;DHT22;7592;51.088;13.732;2022-10-31T09:30:05;28.90;82.80
14993;DHT22;7592;51.088;13.732;2022-10-31T09:35:00;28.30;82.80
14993;DHT22;7592;51.088;13.732;2022-10-31T09:39:53;27.30;83.90
14993;DHT22;7592;51.088;13.732;2022-10-31T09:51:10;28.40;80.80
14993;DHT22;7592;51.088;13.732;2022-10-31T09:56:17;28.60;78.40
14993;DHT22;7592;51.088;13.732;2022-10-31T10:01:40;28.80;77.90
14993;DHT22;7592;51.088;13.732;2022-10-31T10:06:40;29.30;76.70
14993;DHT22;7592;51.088;13.732;2022-10-31T10:17:41;31.00;71.90
14993;DHT22;7592;51.088;13.732;2022-10-31T10:28:10;30.60;71.30
14993;DHT22;7592;51.088;13.732;2022-10-31T10:33:12;31.30;69.50
14993;DHT22;7592;51.088;13.732;2022-10-31T10:38:30;31.90;67.70
14993;DHT22;7592;51.088;13.732;2022-10-31T10:43:50;32.50;65.00
14993;DHT22;7592;51.088;13.732;2022-10-31T10:59:23;31.10;66.20
14993;DHT22;7592;51.088;13.732;2022-10-31T11:09:28;30.60;68.60
14993;DHT22;7592;51.088;13.732;2022-10-31T11:14:22;30.60;68.40
14993;DHT22;7592;51.088;13.732;2022-10-31T11:19:33;31.60;66.90
14993;DHT22;7592;51.088;13.732;2022-10-31T11:24:39;32.30;64.90
14993;DHT22;7592;51.088;13.732;2022-10-31T11:29:37;31.90;65.50
14993;DHT22;7592;51.088;13.732;2022-10-31T11:34:43;31.40;66.90
14993;DHT22;7592;51.088;13.732;2022-10-31T11:39:41;30.70;68.30
14993;DHT22;7592;51.088;13.732;2022-10-31T11:44:34;29.70;71.40
14993;DHT22;7592;51.088;13.732;2022-10-31T11:49:30;28.70;72.80
14993;DHT22;7592;51.088;13.732;2022-10-31T11:54:34;27.50;76.40
14993;DHT22;7592;51.088;13.732;2022-10-31T11:59:30;26.20;80.00
14993;DHT22;7592;51.088;13.732;2022-10-31T12:04:44;24.80;84.70
14993;DHT22;7592;51.088;13.732;2022-10-31T12:09:39;23.60;88.80
14993;DHT22;7592;51.088;13.732;2022-10-31T12:20:23;22.30;92.50
14993;DHT22;7592;51.088;13.732;2022-10-31T12:41:56;21.70;99.90
14993;DHT22;7592;51.088;13.732;2022-10-31T12:47:09;21.50;99.90
14993;DHT22;7592;51.088;13.732;2022-10-31T12:52:30;21.50;99.90
14993;DHT22;7592;51.088;13.732;2022-10-31T12:57:32;21.50;99.90
14993;DHT22;7592;51.088;13.732;2022-10-31T13:02:31;21.50;99.90
14993;DHT22;7592;51.088;13.732;2022-10-31T13:07:50;21.40;99.90
14993;DHT22;7592;51.088;13.732;2022-10-31T13:12:48;21.30;99.90
14993;DHT22;7592;51.088;13.732;2022-10-31T13:17:44;21.10;99.90
14993;DHT22;7592;51.088;13.732;2022-10-31T13:22:38;21.00;99.90
14993;DHT22;7592;51.088;13.732;2022-10-31T13:38:03;21.00;99.90
14993;DHT22;7592;51.088;13.732;2022-10-31T13:43:36;20.90;99.90
14993;DHT22;7592;51.088;13.732;2022-10-31T13:48:37;20.90;99.90
14993;DHT22;7592;51.088;13.732;2022-10-31T13:53:56;20.80;99.90
14993;DHT22;7592;51.088;13.732;2022-10-31T13:59:03;20.80;99.90
14993;DHT22;7592;51.088;13.732;2022-10-31T14:04:17;20.70;99.90
14993;DHT22;7592;51.088;13.732;2022-10-31T14:14:18;20.70;99.90
14993;DHT22;7592;51.088;13.732;2022-10-31T14:19:20;20.60;99.90
14993;DHT22;7592;51.088;13.732;2022-10-31T14:24:32;20.40;99.90
14993;DHT22;7592;51.088;13.732;2022-10-31T14:29:34;20.20;99.90
14993;DHT22;7592;51.088;13.732;2022-10-31T14:34:41;20.00;99.90
14993;DHT22;7592;51.088;13.732;2022-10-31T14:45:21;19.60;99.90
14993;DHT22;7592;51.088;13.732;2022-10-31T14:55:31;19.30;99.90
14993;DHT22;7592;51.088;13.732;2022-10-31T15:00:32;18.90;99.90
14993;DHT22;7592;51.088;13.732;2022-10-31T15:05:29;18.60;99.90
14993;DHT22;7592;51.088;13.732;2022-10-31T15:10:30;18.30;99.90
14993;DHT22;7592;51.088;13.732;2022-10-31T15:15:27;18.00;99.90
14993;DHT22;7592;51.088;13.732;2022-10-31T15:20:25;17.70;99.90
14993;DHT22;7592;51.088;13.732;2022-10-31T15:25:23;17.40;99.90
14993;DHT22;7592;51.088;13.732;2022-10-31T15:30:21;17.10;99.90
14993;DHT22;7592;51.088;13.732;2022-10-31T15:35:28;16.90;99.90
14993;DHT22;7592;51.088;13.732;2022-10-31T15:40:28;16.70;99.90
14993;DHT22;7592;51.088;13.732;2022-10-31T15:45:28;16.50;99.90
14993;DHT22;7592;51.088;13.732;2022-10-31T15:50:39;16.30;99.90
14993;DHT22;7592;51.088;13.732;2022-10-31T15:55:44;16.00;99.90
14993;DHT22;7592;51.088;13.732;2022-10-31T16:00:43;15.80;99.90
14993;DHT22;7592;51.088;13.732;2022-10-31T16:05:56;15.70;99.90
14993;DHT22;7592;51.088;13.732;2022-10-31T16:10:53;15.50;99.90
14993;DHT22;7592;51.088;13.732;2022-10-31T16:15:55;15.30;99.90
14993;DHT22;7592;51.088;13.732;2022-10-31T16:21:11;15.30;99.90
14993;DHT22;7592;51.088;13.732;2022-10-31T16:26:06;15.10;99.90
14993;DHT22;7592;51.088;13.732;2022-10-31T16:31:13;15.00;99.90
14993;DHT22;7592;51.088;13.732;2022-10-31T16:36:41;14.90;99.90
14993;DHT22;7592;51.088;13.732;2022-10-31T16:41:41;14.80;99.90
14993;DHT22;7592;51.088;13.732;2022-10-31T16:46:41;14.80;99.90
14993;DHT22;7592;51.088;13.732;2022-10-31T16:51:34;14.70;99.90
14993;DHT22;7592;51.088;13.732;2022-10-31T16:56:29;14.50;99.90
14993;DHT22;7592;51.088;13.732;2022-10-31T17:01:39;14.40;99.90
14993;DHT22;7592;51.088;13.732;2022-10-31T17:06:32;14.30;99.90
14993;DHT22;7592;51.088;13.732;2022-10-31T17:11:32;14.30;99.90
14993;DHT22;7592;51.088;13.732;2022-10-31T17:16:26;14.20;99.90
14993;DHT22;7592;51.088;13.732;2022-10-31T17:21:22;14.20;99.90
14993;DHT22;7592;51.088;13.732;2022-10-31T17:26:25;14.30;99.90
14993;DHT22;7592;51.088;13.732;2022-10-31T17:31:29;14.30;99.90
14993;DHT22;7592;51.088;13.732;2022-10-31T17:36:30;14.30;99.90
14993;DHT22;7592;51.088;13.732;2022-10-31T17:41:28;14.30;99.90
14993;DHT22;7592;51.088;13.732;2022-10-31T17:46:25;14.20;99.90
14993;DHT22;7592;51.088;13.732;2022-10-31T17:51:21;14.10;99.90
14993;DHT22;7592;51.088;13.732;2022-10-31T17:56:14;14.00;99.90
14993;DHT22;7592;51.088;13.732;2022-10-31T18:01:16;13.90;99.90
14993;DHT22;7592;51.088;13.732;2022-10-31T18:06:20;13.90;99.90
14993;DHT22;7592;51.088;13.732;2022-10-31T18:11:16;13.90;99.90
14993;DHT22;7592;51.088;13.732;2022-10-31T18:16:16;13.90;99.90
14993;DHT22;7592;51.088;13.732;2022-10-31T18:21:14;13.80;99.90
14993;DHT22;7592;51.088;13.732;2022-10-31T18:26:06;13.80;99.90
14993;DHT22;7592;51.088;13.732;2022-10-31T18:31:19;13.80;99.90
14993;DHT22;7592;51.088;13.732;2022-10-31T18:36:23;13.80;99.90
14993;DHT22;7592;51.088;13.732;2022-10-31T18:41:19;13.80;99.90
14993;DHT22;7592;51.088;13.732;2022-10-31T18:46:16;13.70;99.90
14993;DHT22;7592;51.088;13.732;2022-10-31T18:51:17;13.70;99.90
14993;DHT22;7592;51.088;13.732;2022-10-31T18:56:14;13.70;99.90
14993;DHT22;7592;51.088;13.732;2022-10-31T19:01:11;13.60;99.90
14993;DHT22;7592;51.088;13.732;2022-10-31T19:06:10;13.50;99.90
14993;DHT22;7592;51.088;13.732;2022-10-31T19:11:14;13.30;99.90
14993;DHT22;7592;51.088;13.732;2022-10-31T19:16:16;13.20;99.90
14993;DHT22;7592;51.088;13.732;2022-10-31T19:21:17;13.00;99.90
14993;DHT22;7592;51.088;13.732;2022-10-31T19:26:21;12.90;99.90
14993;DHT22;7592;51.088;13.732;2022-10-31T19:31:13;12.80;99.90
14993;DHT22;7592;51.088;13.732;2022-10-31T19:36:11;12.70;99.90
14993;DHT22;7592;51.088;13.732;2022-10-31T19:41:21;12.70;99.90
14993;DHT22;7592;51.088;13.732;2022-10-31T19:46:17;12.70;99.90
14993;DHT22;7592;51.088;13.732;2022-10-31T19:51:38;12.70;99.90
14993;DHT22;7592;51.088;13.732;2022-10-31T19:56:33;12.70;99.90
14993;DHT22;7592;51.088;13.732;2022-10-31T20:01:27;12.60;99.90
14993;DHT22;7592;51.088;13.732;2022-10-31T20:06:39;12.50;99.90
14993;DHT22;7592;51.088;13.732;2022-10-31T20:11:51;12.60;99.90
14993;DHT22;7592;51.088;13.732;2022-10-31T20:16:50;12.90;99.90
14993;DHT22;7592;51.088;13.732;2022-10-31T20:21:51;12.90;99.90
14993;DHT22;7592;51.088;13.732;2022-10-31T20:26:54;12.80;99.90
14993;DHT22;7592;51.088;13.732;2022-10-31T20:31:55;12.70;99.90
14993;DHT22;7592;51.088;13.732;2022-10-31T20:36:51;12.70;99.90
14993;DHT22;7592;51.088;13.732;2022-10-31T20:41:46;12.90;99.90
14993;DHT22;7592;51.088;13.732;2022-10-31T20:46:41;12.80;99.90
14993;DHT22;7592;51.088;13.732;2022-10-31T20:51:35;12.80;99.90
14993;DHT22;7592;51.088;13.732;2022-10-31T20:56:33;12.90;99.90
14993;DHT22;7592;51.088;13.732;2022-10-31T21:01:33;13.00;99.90
14993;DHT22;7592;51.088;13.732;2022-10-31T21:06:28;12.90;99.90
14993;DHT22;7592;51.088;13.732;2022-10-31T21:11:25;13.00;99.90
14993;DHT22;7592;51.088;13.732;2022-10-31T21:16:26;13.00;99.90
14993;DHT22;7592;51.088;13.732;2022-10-31T21:21:24;13.10;99.90
14993;DHT22;7592;51.088;13.732;2022-10-31T21:26:31;12.90;99.90
14993;DHT22;7592;51.088;13.732;2022-10-31T21:31:25;12.60;99.90
14993;DHT22;7592;51.088;13.732;2022-10-31T21:36:19;12.30;99.90
14993;DHT22;7592;51.088;13.732;2022-10-31T21:41:14;12.30;99.90
14993;DHT22;7592;51.088;13.732;2022-10-31T21:46:11;12.30;99.90
14993;DHT22;7592;51.088;13.732;2022-10-31T21:51:05;12.30;99.90
14993;DHT22;7592;51.088;13.732;2022-10-31T21:56:02;12.30;99.90
14993;DHT22;7592;51.088;13.732;2022-10-31T22:01:00;12.30;99.90
14993;DHT22;7592;51.088;13.732;2022-10-31T22:05:52;12.20;99.90
14993;DHT22;7592;51.088;13.732;2022-10-31T22:10:51;12.10;99.90
14993;DHT22;7592;51.088;13.732;2022-10-31T22:15:46;12.00;99.90
14993;DHT22;7592;51.088;13.732;2022-10-31T22:20:39;12.00;99.90
14993;DHT22;7592;51.088;13.732;2022-10-31T22:25:36;12.00;99.90
14993;DHT22;7592;51.088;13.732;2022-10-31T22:30:28;12.00;99.90
14993;DHT22;7592;51.088;13.732;2022-10-31T22:35:21;11.90;99.90
14993;DHT22;7592;51.088;13.732;2022-10-31T22:40:13;11.70;99.90
14993;DHT22;7592;51.088;13.732;2022-10-31T22:45:05;11.60;99.90
14993;DHT22;7592;51.088;13.732;2022-10-31T22:49:58;11.50;99.90
14993;DHT22;7592;51.088;13.732;2022-10-31T22:54:50;11.40;99.90
14993;DHT22;7592;51.088;13.732;2022-10-31T22:59:48;11.30;99.90
14993;DHT22;7592;51.088;13.732;2022-10-31T23:04:45;11.30;99.90
14993;DHT22;7592;51.088;13.732;2022-10-31T23:09:37;11.30;99.90
14993;DHT22;7592;51.088;13.732;2022-10-31T23:14:30;11.10;99.90
14993;DHT22;7592;51.088;13.732;2022-10-31T23:19:24;11.10;99.90
14993;DHT22;7592;51.088;13.732;2022-10-31T23:24:19;11.00;99.90
14993;DHT22;7592;51.088;13.732;2022-10-31T23:29:12;11.10;99.90
14993;DHT22;7592;51.088;13.732;2022-10-31T23:34:08;11.20;99.90
14993;DHT22;7592;51.088;13.732;2022-10-31T23:39:00;11.20;99.90
14993;DHT22;7592;51.088;13.732;2022-10-31T23:43:52;11.20;99.90
14993;DHT22;7592;51.088;13.732;2022-10-31T23:48:44;11.10;99.90
14993;DHT22;7592;51.088;13.732;2022-10-31T23:53:38;11.10;99.90
14993;DHT22;7592;51.088;13.732;2022-10-31T23:58:31;11.00;99.90
